Airfield :
LOGIN :

Register | Disclaimer

   EN    FR    IT 

 










Legend :    VFR   Marginal VFR   IFR   Intensive IFR   Very Intensive IFR
Visi :
Ceiling :
>= 8 km
>= 3000ft
5 to 8 km
1000 to 3000 ft
1500m to 5 km
500 to 1000 ft
800 to 1500m
200 to 500 ft
< 800m
< 200 ft
Symbols :   Thunderstorms  Fog  Heavy snow  Heavy precipitations  Wind > 20 kt
SIGMETs :     Misc.  Thunderstorms  Icing  Turbulence  Mountain Waves  Volcanic Ashes






- Airport Elevation : 39 ft
- IATA code : ANR


EBAW - Anvers / Antwerpen Deurne

CURRENT METAR :
  • 180350Z AUTO VRB02KT 0350 R11/0400N R29/0400N FG VV001 02/02 Q1039

EXPIRED METARs :
  • 180320Z AUTO 20002KT 0450 R11/0600N R29/0500N FG VV002 01/01 Q1038
  • 180250Z AUTO 15002KT 0300 R11/0550N R29/0375N FG VV001 01/01 Q1038
  • 180220Z AUTO 16001KT 0400 R11/0450N R29/0550N FG VV002 02/02 Q1038
  • 180150Z AUTO VRB01KT 0300 R11/0350N R29/0350N FG VV001 03/03 Q1039
  • 180120Z AUTO 26002KT 0350 R11/0450N R29/0450N FG VV001 03/03 Q1039

TAF TAF EBAW
Valid from the 18 at 03:00 until the 18 at 12:00 UTC


180200Z 1803/1812 VRB03KT 1200 BCFG BKN003
TEMPO 1803/1810 0400 FG VV001



MET'MAP, your aeronautical weather chart ! - Copyright ORBIFLY December 2007 - Disclaimer

ORBIFLY MET'MAP TEAM :

Programming & Development : Alexandra Zaïnal
Concept & original design : Baudouin d'Aumeries
Assistance for programming : Marc-Olivier Méhu
Technical & hardware support : Manuel Goepfert

Contact : metmap@orbifly.com




SOURCES & CREDITS :

   NOAA